Time;durP1;ratioP1;P1;durP2;ratioP2;P2;SDS_P1;SDS_P2;PMS_P1;PMS_P2;Temp;Humidity;BMP_temperature;BMP_pressure;BME280_temperature;BME280_humidity;BME280_pressure;Samples;Min_cycle;Max_cycle;Signal;HPM_P1;HPM_P2
2021/11/19 00:00:47;;;;;;;56.77;21.60;;;10.40;99.30;;;;;;5069720;28;20119;-77
2021/11/19 00:03:13;;;;;;;49.40;21.55;;;10.40;99.30;;;;;;5070882;28;20286;-78
2021/11/19 00:05:40;;;;;;;40.05;19.92;;;10.40;99.30;;;;;;5055246;28;20024;-79
2021/11/19 00:08:07;;;;;;;49.80;21.98;;;10.30;99.30;;;;;;5054442;28;20017;-76
2021/11/19 00:10:34;;;;;;;47.45;21.40;;;10.40;99.30;;;;;;5070947;28;20055;-76
2021/11/19 00:12:59;;;;;;;45.08;22.58;;;10.40;99.40;;;;;;5070345;28;20498;-76
2021/11/19 00:15:25;;;;;;;52.85;22.67;;;10.30;99.40;;;;;;5063414;28;20131;-76
2021/11/19 00:17:51;;;;;;;49.45;20.77;;;10.40;99.40;;;;;;5063931;28;20177;-79
2021/11/19 00:20:20;;;;;;;45.72;21.17;;;10.30;99.40;;;;;;5037521;28;20101;-79
2021/11/19 00:22:46;;;;;;;;;;;10.30;99.40;;;;;;5071389;28;20039;-79
2021/11/19 00:25:11;;;;;;;58.00;24.10;;;10.30;99.40;;;;;;5071478;28;19916;-79
2021/11/19 00:27:38;;;;;;;53.03;24.02;;;10.30;99.40;;;;;;5051120;28;20029;-79
2021/11/19 00:30:10;;;;;;;60.45;24.55;;;10.30;99.50;;;;;;5065896;28;20028;-80
2021/11/19 00:32:37;;;;;;;44.80;22.90;;;10.30;99.50;;;;;;5073093;28;20029;-79
2021/11/19 00:35:05;;;;;;;46.53;23.33;;;10.30;99.50;;;;;;5071807;28;20048;-79
2021/11/19 00:37:31;;;;;;;52.45;23.83;;;10.30;99.50;;;;;;5073224;28;20032;-79
2021/11/19 00:39:56;;;;;;;55.72;23.58;;;10.30;99.50;;;;;;5071757;28;20107;-79
2021/11/19 00:42:22;;;;;;;56.15;23.20;;;10.30;99.50;;;;;;5072043;28;20559;-76
2021/11/19 00:44:48;;;;;;;50.65;23.77;;;10.30;99.50;;;;;;5070244;28;21490;-76
2021/11/19 00:47:14;;;;;;;48.63;21.85;;;10.30;99.50;;;;;;5070725;28;20021;-76
2021/11/19 00:49:42;;;;;;;53.38;24.33;;;10.30;99.50;;;;;;5053323;28;20052;-76
2021/11/19 00:52:10;;;;;;;56.90;22.70;;;10.30;99.50;;;;;;5071418;28;20122;-76
2021/11/19 00:54:36;;;;;;;49.85;24.83;;;10.30;99.50;;;;;;5071230;28;20074;-77
2021/11/19 00:57:14;;;;;;;61.95;26.17;;;10.30;99.50;;;;;;5072606;28;20033;-80
2021/11/19 00:59:41;;;;;;;55.70;25.58;;;10.30;99.50;;;;;;5072739;28;20032;-79
2021/11/19 01:02:13;;;;;;;62.95;25.90;;;10.30;99.50;;;;;;5072890;28;20033;-80
2021/11/19 01:04:39;;;;;;;56.63;24.98;;;10.30;99.60;;;;;;5054824;28;20098;-80
2021/11/19 01:07:06;;;;;;;50.58;24.30;;;10.30;99.50;;;;;;5038217;28;20066;-80
2021/11/19 01:09:36;;;;;;;51.85;23.58;;;10.30;99.60;;;;;;5054893;28;20427;-80
2021/11/19 01:12:02;;;;;;;;;;;10.20;99.50;;;;;;5073239;28;20756;-80
2021/11/19 01:14:36;;;;;;;57.38;26.02;;;10.30;99.50;;;;;;5072342;28;19935;-80
2021/11/19 01:17:10;;;;;;;57.58;25.80;;;10.20;99.50;;;;;;5054166;28;20033;-79
2021/11/19 01:19:41;;;;;;;57.70;26.25;;;10.20;99.50;;;;;;5072384;28;20743;-79
2021/11/19 01:22:12;;;;;;;54.88;25.00;;;10.20;99.80;;;;;;5053166;28;20488;-79
2021/11/19 01:24:40;;;;;;;48.17;23.73;;;10.20;99.60;;;;;;5054567;28;20033;-79
2021/11/19 01:27:06;;;;;;;48.60;25.15;;;10.20;99.60;;;;;;5075026;28;20031;-79
2021/11/19 01:29:32;;;;;;;70.10;26.85;;;10.20;99.60;;;;;;5074481;28;20024;-79
2021/11/19 01:32:09;;;;;;;54.25;25.75;;;10.20;99.60;;;;;;5056022;28;20023;-79
2021/11/19 01:34:36;;;;;;;59.17;26.85;;;10.20;99.60;;;;;;5056291;28;20032;-79
2021/11/19 01:37:03;;;;;;;70.05;26.25;;;10.30;99.60;;;;;;5055922;28;20111;-79
2021/11/19 01:39:29;;;;;;;46.20;23.95;;;10.20;99.60;;;;;;5073234;28;20016;-80
2021/11/19 01:42:18;;;;;;;57.53;26.20;;;10.20;99.60;;;;;;5073578;28;20372;-79
2021/11/19 01:45:17;;;;;;;58.45;25.38;;;10.20;99.60;;;;;;5073809;28;20037;-80
2021/11/19 01:47:50;;;;;;;45.80;22.90;;;10.20;99.60;;;;;;5075310;28;20028;-79
2021/11/19 01:50:54;;;;;;;60.40;25.35;;;10.20;99.60;;;;;;5058023;28;20024;-79
2021/11/19 01:53:30;;;;;;;54.00;25.83;;;10.20;99.60;;;;;;5054891;28;20036;-79
2021/11/19 01:56:23;;;;;;;65.45;29.00;;;10.20;99.60;;;;;;5074269;28;20036;-79
2021/11/19 01:58:53;;;;;;;55.22;25.65;;;10.20;99.60;;;;;;5074464;28;20051;-79
2021/11/19 02:01:44;;;;;;;52.47;24.77;;;10.20;99.60;;;;;;5074285;28;20035;-79
2021/11/19 02:04:14;;;;;;;61.88;25.88;;;10.20;99.70;;;;;;5066082;28;20052;-79
2021/11/19 02:07:04;;;;;;;54.35;25.15;;;10.20;99.60;;;;;;5075210;28;20114;-79
2021/11/19 02:09:51;;;;;;;51.28;26.58;;;10.30;99.70;;;;;;5075079;28;20025;-79
2021/11/19 02:12:41;;;;;;;57.20;27.10;;;10.20;99.70;;;;;;5075363;28;20017;-79
2021/11/19 02:15:12;;;;;;;59.75;26.35;;;10.20;99.70;;;;;;5074434;28;20039;-77
2021/11/19 02:17:39;;;;;;;54.05;25.77;;;10.30;99.70;;;;;;5074721;28;20075;-76
2021/11/19 02:20:10;;;;;;;63.83;29.98;;;10.30;99.70;;;;;;5072660;28;20484;-77
2021/11/19 02:22:44;;;;;;;52.33;26.83;;;10.30;99.70;;;;;;5073946;28;20548;-77
2021/11/19 02:25:15;;;;;;;54.55;28.02;;;10.20;99.70;;;;;;5072576;28;20025;-76
2021/11/19 02:27:44;;;;;;;62.28;29.45;;;10.30;99.70;;;;;;5072734;28;20059;-76
2021/11/19 02:30:16;;;;;;;67.95;31.13;;;10.30;99.70;;;;;;5072821;28;20038;-76
2021/11/19 02:32:45;;;;;;;57.47;29.02;;;10.30;99.70;;;;;;5073776;28;20028;-77
2021/11/19 02:35:24;;;;;;;58.08;29.05;;;10.30;99.70;;;;;;5071567;28;20024;-76
2021/11/19 02:37:58;;;;;;;66.63;28.95;;;10.30;99.70;;;;;;5072480;28;20111;-76
2021/11/19 02:40:31;;;;;;;71.18;32.42;;;10.30;99.70;;;;;;5071590;28;20033;-77
2021/11/19 02:43:00;;;;;;;71.55;32.55;;;10.30;99.80;;;;;;5072402;28;20508;-77
2021/11/19 02:45:33;;;;;;;60.33;28.90;;;10.30;99.80;;;;;;5071687;28;20036;-76
2021/11/19 02:47:59;;;;;;;64.80;28.92;;;10.30;99.80;;;;;;5072789;28;20020;-77
2021/11/19 02:50:26;;;;;;;73.78;31.40;;;10.30;99.80;;;;;;5055829;28;20123;-77
2021/11/19 02:52:54;;;;;;;60.83;29.75;;;10.30;99.80;;;;;;5072482;28;20063;-77
2021/11/19 02:55:24;;;;;;;62.10;30.98;;;10.30;99.80;;;;;;5056499;28;20469;-76
2021/11/19 02:57:50;;;;;;;66.35;32.00;;;10.30;99.80;;;;;;5055503;28;20029;-77
2021/11/19 03:00:24;;;;;;;74.03;33.88;;;10.30;99.80;;;;;;5055404;28;20040;-77
2021/11/19 03:02:50;;;;;;;61.13;30.88;;;10.30;99.80;;;;;;5054367;28;20033;-77
2021/11/19 03:05:26;;;;;;;77.75;36.10;;;10.30;99.90;;;;;;5055263;28;20021;-76
2021/11/19 03:07:53;;;;;;;67.43;32.95;;;10.30;99.90;;;;;;5071927;28;20024;-76
2021/11/19 03:10:21;;;;;;;76.18;33.90;;;10.30;99.90;;;;;;5053377;28;20051;-77
2021/11/19 03:12:47;;;;;;;75.73;34.43;;;10.30;99.90;;;;;;5053319;28;20028;-76
2021/11/19 03:15:18;;;;;;;86.22;37.00;;;10.30;99.90;;;;;;5046347;28;20504;-76
2021/11/19 03:17:44;;;;;;;72.65;34.88;;;10.30;99.90;;;;;;5053263;28;20033;-76
2021/11/19 03:20:12;;;;;;;77.60;34.13;;;10.30;99.90;;;;;;5024871;28;20041;-77
2021/11/19 03:22:38;;;;;;;74.20;33.50;;;10.30;99.90;;;;;;5034752;28;20115;-77
2021/11/19 03:25:07;;;;;;;76.00;35.72;;;10.30;99.90;;;;;;5045284;28;20107;-76
2021/11/19 03:27:33;;;;;;;77.35;35.97;;;10.30;99.90;;;;;;5072395;28;20031;-76
2021/11/19 03:29:59;;;;;;;72.63;34.03;;;10.30;99.90;;;;;;5053357;28;20029;-76
2021/11/19 03:32:28;;;;;;;65.88;33.38;;;10.30;99.90;;;;;;5032866;28;20552;-76
2021/11/19 03:34:54;;;;;;;77.15;35.35;;;10.30;99.90;;;;;;5052617;28;20181;-77
2021/11/19 03:37:20;;;;;;;83.15;35.28;;;10.30;99.90;;;;;;5071628;28;20032;-76
2021/11/19 03:39:47;;;;;;;80.43;36.83;;;10.30;99.90;;;;;;5053563;28;20397;-76
2021/11/19 03:42:14;;;;;;;81.50;36.65;;;10.30;99.90;;;;;;5055159;28;20393;-77
2021/11/19 03:44:50;;;;;;;74.95;35.25;;;10.40;99.90;;;;;;5054899;28;20024;-77
2021/11/19 03:47:25;;;;;;;77.80;37.83;;;10.30;99.90;;;;;;5054072;28;20028;-76
2021/11/19 03:49:52;;;;;;;81.32;34.47;;;10.30;99.90;;;;;;5072871;28;20029;-77
2021/11/19 03:52:27;;;;;;;74.85;35.17;;;10.30;99.90;;;;;;5072933;28;20043;-76
2021/11/19 03:54:57;;;;;;;81.43;34.95;;;10.30;99.90;;;;;;5060299;28;20127;-76
2021/11/19 03:57:24;;;;;;;84.68;35.15;;;10.30;99.90;;;;;;5071271;28;20074;-77
2021/11/19 03:59:51;;;;;;;66.50;34.20;;;10.30;99.90;;;;;;5071836;28;20090;-76
2021/11/19 04:02:20;;;;;;;70.03;32.72;;;10.30;99.90;;;;;;5072495;28;20036;-79
2021/11/19 04:04:46;;;;;;;66.65;32.17;;;10.30;99.90;;;;;;5072203;28;20028;-79
2021/11/19 04:07:15;;;;;;;73.80;35.70;;;10.30;99.90;;;;;;5070278;28;20094;-80
2021/11/19 04:09:44;;;;;;;83.38;38.63;;;10.30;99.90;;;;;;5059596;28;20016;-80
2021/11/19 04:12:10;;;;;;;93.90;38.08;;;10.30;99.90;;;;;;5073285;28;20033;-79
2021/11/19 04:14:36;;;;;;;78.35;36.00;;;10.30;99.90;;;;;;5051542;28;20036;-77
2021/11/19 04:17:02;;;;;;;78.88;37.72;;;10.30;99.90;;;;;;5054487;28;20024;-77
2021/11/19 04:19:30;;;;;;;74.07;34.15;;;10.30;99.90;;;;;;5070835;28;20036;-76
2021/11/19 04:21:59;;;;;;;87.17;38.10;;;10.30;99.90;;;;;;5071536;28;20028;-77
2021/11/19 04:24:28;;;;;;;78.00;35.33;;;10.30;99.90;;;;;;5067115;28;20025;-76
2021/11/19 04:26:54;;;;;;;87.93;38.38;;;10.40;99.90;;;;;;5072022;28;20032;-76
2021/11/19 04:29:20;;;;;;;89.18;38.58;;;10.30;99.90;;;;;;5071922;28;20081;-76
2021/11/19 04:31:46;;;;;;;75.40;36.28;;;10.30;99.90;;;;;;5053843;28;20028;-80
2021/11/19 04:34:13;;;;;;;76.60;37.10;;;10.30;99.90;;;;;;5071237;28;20039;-80
2021/11/19 04:36:38;;;;;;;69.70;33.78;;;10.30;99.90;;;;;;5072548;28;20029;-80
2021/11/19 04:39:10;;;;;;;76.50;36.38;;;10.30;99.90;;;;;;5072319;28;20358;-80
2021/11/19 04:41:36;;;;;;;82.55;36.55;;;10.30;99.90;;;;;;5072689;28;20542;-80
2021/11/19 04:44:03;;;;;;;76.55;35.75;;;10.30;99.90;;;;;;5071226;28;20048;-80
2021/11/19 04:46:29;;;;;;;72.45;37.42;;;10.30;99.90;;;;;;5071067;28;20028;-80
2021/11/19 04:48:55;;;;;;;83.18;39.03;;;10.30;99.90;;;;;;5072285;28;20033;-80
2021/11/19 04:51:28;;;;;;;72.50;35.95;;;10.30;99.90;;;;;;5071386;28;21225;-80
2021/11/19 04:53:53;;;;;;;75.68;34.47;;;10.40;99.90;;;;;;5070891;28;20049;-80
2021/11/19 04:56:20;;;;;;;72.20;37.58;;;10.40;99.90;;;;;;5072318;28;20507;-80
2021/11/19 04:58:47;;;;;;;76.75;36.95;;;10.40;99.90;;;;;;5074298;28;20034;-80
2021/11/19 05:01:20;;;;;;;65.90;34.83;;;10.40;99.90;;;;;;5075280;28;20032;-80
2021/11/19 05:03:46;;;;;;;86.55;38.78;;;10.40;99.90;;;;;;5076255;28;20067;-80
2021/11/19 05:06:14;;;;;;;69.90;35.47;;;10.40;99.90;;;;;;5074249;28;20053;-80
2021/11/19 05:08:39;;;;;;;73.18;35.25;;;10.40;99.90;;;;;;5075317;28;20100;-80
2021/11/19 05:11:08;;;;;;;71.43;35.78;;;10.40;99.90;;;;;;5075179;28;20100;-80
2021/11/19 05:13:36;;;;;;;77.15;36.83;;;10.40;99.90;;;;;;5075203;28;20374;-80
2021/11/19 05:16:04;;;;;;;67.07;35.13;;;10.40;99.90;;;;;;5073793;28;20067;-79
2021/11/19 05:18:31;;;;;;;83.88;37.17;;;10.40;99.90;;;;;;5073014;28;20090;-80
2021/11/19 05:20:58;;;;;;;72.07;36.03;;;10.40;99.90;;;;;;5075021;28;20119;-80
2021/11/19 05:23:24;;;;;;;76.53;36.35;;;10.40;99.90;;;;;;5073514;28;20040;-81
2021/11/19 05:25:50;;;;;;;86.40;39.95;;;10.40;99.90;;;;;;5071979;28;20039;-80
2021/11/19 05:28:19;;;;;;;83.00;38.20;;;10.50;99.90;;;;;;5073636;28;20040;-80
2021/11/19 05:30:45;;;;;;;71.10;35.63;;;10.40;99.90;;;;;;5073220;28;20052;-80
2021/11/19 05:33:14;;;;;;;73.47;36.60;;;10.40;99.90;;;;;;5074776;28;20484;-80
2021/11/19 05:35:40;;;;;;;80.85;36.22;;;10.50;99.90;;;;;;5075394;28;20056;-80
2021/11/19 05:38:06;;;;;;;77.97;36.72;;;10.50;99.90;;;;;;5074026;28;20056;-80
2021/11/19 05:40:32;;;;;;;73.72;36.85;;;10.50;99.90;;;;;;5071796;28;20032;-80
2021/11/19 05:42:58;;;;;;;79.68;39.28;;;10.50;99.90;;;;;;5074697;28;20029;-80
2021/11/19 05:45:28;;;;;;;68.03;37.65;;;10.50;99.90;;;;;;5060198;28;20157;-81
2021/11/19 05:47:54;;;;;;;80.43;38.33;;;10.50;99.90;;;;;;5073797;28;20035;-80
2021/11/19 05:50:22;;;;;;;60.88;34.55;;;10.50;99.90;;;;;;5057063;28;20032;-80
2021/11/19 05:52:49;;;;;;;66.83;35.10;;;10.50;99.90;;;;;;5073314;28;20499;-80
2021/11/19 05:55:18;;;;;;;78.07;37.15;;;10.50;99.90;;;;;;5066597;28;20362;-80
2021/11/19 05:57:44;;;;;;;68.93;36.17;;;10.50;99.90;;;;;;5073487;28;20033;-80
2021/11/19 06:00:22;;;;;;;79.72;37.08;;;10.50;99.90;;;;;;5052495;28;20104;-80
2021/11/19 06:02:48;;;;;;;67.10;34.95;;;10.50;99.90;;;;;;5072658;28;20028;-80
2021/11/19 06:05:14;;;;;;;71.28;34.38;;;10.50;99.90;;;;;;5065772;28;20044;-80
2021/11/19 06:07:41;;;;;;;75.43;36.10;;;10.50;99.90;;;;;;5024015;28;20489;-80
2021/11/19 06:10:08;;;;;;;62.20;33.33;;;10.50;99.90;;;;;;5055213;28;20074;-80
2021/11/19 06:12:41;;;;;;;72.75;35.28;;;10.50;99.90;;;;;;5075027;28;20029;-79
2021/11/19 06:15:31;;;;;;;77.05;37.03;;;10.50;99.90;;;;;;5075040;28;20021;-80
2021/11/19 06:18:08;;;;;;;89.78;38.20;;;10.50;99.90;;;;;;5073939;28;20079;-80
2021/11/19 06:20:40;;;;;;;69.47;35.17;;;10.60;99.90;;;;;;5074432;28;20028;-80
2021/11/19 06:23:13;;;;;;;66.85;33.97;;;10.50;99.90;;;;;;5056731;28;20401;-79
2021/11/19 06:25:41;;;;;;;68.53;35.92;;;10.50;99.90;;;;;;5056422;28;20515;-80
2021/11/19 06:28:10;;;;;;;82.97;36.80;;;10.50;99.90;;;;;;5074737;28;20025;-79
2021/11/19 06:30:36;;;;;;;;;;;10.50;99.90;;;;;;5075142;28;20021;-80
2021/11/19 06:33:02;;;;;;;84.95;36.85;;;10.50;99.90;;;;;;5056591;28;19912;-80
2021/11/19 06:35:28;;;;;;;60.25;32.53;;;10.50;99.90;;;;;;5039492;28;20033;-79
2021/11/19 06:37:54;;;;;;;76.05;36.40;;;10.50;99.90;;;;;;5056081;28;20047;-81
2021/11/19 06:40:23;;;;;;;67.03;34.58;;;10.50;99.90;;;;;;5073631;28;20033;-81
2021/11/19 06:42:49;;;;;;;68.68;34.13;;;10.50;99.90;;;;;;5073273;28;20511;-77
2021/11/19 06:45:16;;;;;;;85.60;39.75;;;10.50;99.90;;;;;;5038010;28;20037;-77
2021/11/19 06:47:43;;;;;;;76.10;36.10;;;10.60;99.90;;;;;;5065931;28;20027;-77
2021/11/19 06:50:10;;;;;;;75.65;36.03;;;10.50;99.90;;;;;;5072894;28;20039;-77
2021/11/19 06:52:36;;;;;;;93.10;38.95;;;10.60;99.90;;;;;;5054833;28;20028;-77
2021/11/19 06:55:03;;;;;;;86.80;39.75;;;10.60;99.90;;;;;;5070496;28;20125;-77
2021/11/19 06:57:29;;;;;;;80.13;39.22;;;10.60;99.90;;;;;;5071680;28;20029;-81
2021/11/19 06:59:55;;;;;;;87.45;40.65;;;10.60;99.90;;;;;;5071089;28;20021;-81
2021/11/19 07:02:21;;;;;;;97.25;40.60;;;10.60;99.90;;;;;;5064649;28;20036;-81
2021/11/19 07:04:46;;;;;;;87.70;39.45;;;10.60;99.90;;;;;;5071916;28;20029;-81
2021/11/19 07:07:12;;;;;;;80.55;36.80;;;10.50;99.90;;;;;;5054688;28;20025;-81
2021/11/19 07:09:39;;;;;;;76.07;36.90;;;10.60;99.90;;;;;;5071358;28;20025;-81
2021/11/19 07:12:09;;;;;;;97.93;40.55;;;10.50;99.90;;;;;;5073089;28;20013;-81
2021/11/19 07:14:36;;;;;;;94.30;39.75;;;10.60;99.90;;;;;;5078943;28;20021;-81
2021/11/19 07:17:05;;;;;;;88.28;40.33;;;10.60;99.90;;;;;;5073035;28;20032;-80
2021/11/19 07:19:31;;;;;;;94.05;40.95;;;10.60;99.90;;;;;;5072749;28;20025;-80
2021/11/19 07:21:57;;;;;;;85.97;40.17;;;10.60;99.90;;;;;;5072192;28;20049;-80
2021/11/19 07:24:24;;;;;;;90.85;38.95;;;10.60;99.90;;;;;;5071093;28;20178;-81
2021/11/19 07:26:49;;;;;;;94.50;43.70;;;10.60;99.90;;;;;;5071629;28;20029;-80
2021/11/19 07:29:15;;;;;;;97.22;41.00;;;10.60;99.90;;;;;;5072009;28;20134;-80
2021/11/19 07:31:41;;;;;;;89.82;41.40;;;10.60;99.90;;;;;;5069936;28;20025;-80
2021/11/19 07:34:06;;;;;;;79.40;37.38;;;10.60;99.90;;;;;;5071749;28;20097;-80
2021/11/19 07:36:33;;;;;;;91.32;41.95;;;10.60;99.90;;;;;;5071478;28;20040;-80
2021/11/19 07:38:59;;;;;;;117.40;43.17;;;10.60;99.90;;;;;;5072018;28;20037;-82
2021/11/19 07:41:26;;;;;;;81.57;39.30;;;10.60;99.90;;;;;;5064545;28;20029;-83
2021/11/19 07:43:53;;;;;;;88.65;40.28;;;10.60;99.90;;;;;;5070501;28;20031;-80
2021/11/19 07:46:24;;;;;;;74.55;37.88;;;10.60;99.90;;;;;;5072046;28;20040;-79
2021/11/19 07:48:50;;;;;;;96.10;40.90;;;10.70;99.90;;;;;;5072552;28;20473;-79
2021/11/19 07:51:19;;;;;;;95.88;40.97;;;10.70;99.90;;;;;;5071158;28;20040;-79
2021/11/19 07:53:47;;;;;;;91.97;41.13;;;10.60;99.90;;;;;;5072454;28;20124;-78
2021/11/19 07:56:14;;;;;;;81.82;39.30;;;10.60;99.90;;;;;;5072380;28;20449;-79
2021/11/19 07:58:41;;;;;;;97.53;41.80;;;10.70;99.90;;;;;;5054328;28;20025;-79
2021/11/19 08:01:07;;;;;;;94.25;40.10;;;10.70;99.90;;;;;;5054607;28;20028;-79
2021/11/19 08:03:33;;;;;;;82.20;36.97;;;10.70;99.90;;;;;;5054557;28;20043;-79
2021/11/19 08:06:02;;;;;;;84.18;37.92;;;10.70;99.90;;;;;;5072359;28;20024;-79
2021/11/19 08:08:30;;;;;;;96.28;39.92;;;10.70;99.90;;;;;;5058764;28;20025;-79
2021/11/19 08:10:56;;;;;;;106.25;43.22;;;10.70;99.90;;;;;;5054193;28;20115;-79
2021/11/19 08:13:22;;;;;;;81.57;38.45;;;10.70;99.90;;;;;;5054282;28;20025;-79
2021/11/19 08:15:48;;;;;;;88.03;39.38;;;10.70;99.90;;;;;;5072106;28;20025;-79
2021/11/19 08:18:27;;;;;;;96.05;40.60;;;10.70;99.90;;;;;;5054178;28;20029;-79
2021/11/19 08:20:55;;;;;;;103.82;42.95;;;10.70;99.90;;;;;;5054025;28;20504;-79
2021/11/19 08:23:26;;;;;;;106.27;41.27;;;10.80;99.90;;;;;;5054565;28;20058;-79
2021/11/19 08:25:51;;;;;;;96.90;39.00;;;10.80;99.90;;;;;;5054234;28;20271;-79
2021/11/19 08:28:17;;;;;;;82.38;37.55;;;10.80;99.90;;;;;;5054607;28;20036;-79
2021/11/19 08:30:47;;;;;;;82.35;39.13;;;10.80;99.90;;;;;;5072726;28;20043;-80
2021/11/19 08:33:16;;;;;;;74.65;36.70;;;10.80;99.90;;;;;;5053619;28;20550;-79
2021/11/19 08:35:43;;;;;;;94.65;40.15;;;10.80;99.90;;;;;;5061062;28;20111;-80
2021/11/19 08:38:12;;;;;;;93.85;40.30;;;10.80;99.90;;;;;;5060617;28;20378;-80
2021/11/19 08:40:43;;;;;;;75.68;36.45;;;10.80;99.90;;;;;;5064971;28;20119;-79
2021/11/19 08:43:14;;;;;;;82.25;39.28;;;10.80;99.90;;;;;;5047837;28;20029;-80
2021/11/19 08:45:41;;;;;;;85.03;39.75;;;10.80;99.90;;;;;;5052253;28;20700;-80
2021/11/19 08:48:07;;;;;;;98.47;42.88;;;10.80;99.90;;;;;;5070681;28;20017;-79
2021/11/19 08:50:37;;;;;;;101.53;42.60;;;10.80;99.90;;;;;;5069057;28;20024;-79
2021/11/19 08:53:04;;;;;;;84.97;39.67;;;10.80;99.90;;;;;;5051878;28;20044;-79
2021/11/19 08:55:30;;;;;;;89.28;40.13;;;10.80;99.90;;;;;;5043079;28;20054;-79
2021/11/19 08:57:58;;;;;;;84.68;40.88;;;10.80;99.90;;;;;;5027002;28;20075;-80
2021/11/19 09:00:33;;;;;;;94.80;43.35;;;10.90;99.90;;;;;;5069404;28;20392;-79
2021/11/19 09:02:59;;;;;;;104.13;44.05;;;10.90;99.90;;;;;;5051867;28;20115;-79
2021/11/19 09:05:27;;;;;;;94.50;42.08;;;10.90;99.90;;;;;;5051414;28;20535;-80
2021/11/19 09:07:53;;;;;;;110.15;45.03;;;10.90;99.90;;;;;;5070888;28;20009;-80
2021/11/19 09:10:19;;;;;;;106.43;43.55;;;10.90;99.90;;;;;;5070991;28;20052;-80
2021/11/19 09:12:46;;;;;;;98.50;42.15;;;10.90;99.90;;;;;;5051762;28;20120;-81
2021/11/19 09:15:16;;;;;;;95.70;40.65;;;10.90;99.90;;;;;;5067337;28;20013;-80
2021/11/19 09:18:19;;;;;;;101.47;43.17;;;10.90;99.90;;;;;;5052999;28;20040;-80
2021/11/19 09:20:44;;;;;;;110.07;44.58;;;11.00;99.90;;;;;;5050153;28;20090;-80
2021/11/19 09:23:42;;;;;;;103.30;45.17;;;11.00;99.90;;;;;;5071302;28;20040;-81
2021/11/19 09:26:13;;;;;;;107.40;44.88;;;11.00;99.90;;;;;;5033285;28;20044;-81
2021/11/19 09:28:43;;;;;;;104.30;43.47;;;11.00;99.90;;;;;;5053117;28;20103;-80
2021/11/19 09:31:11;;;;;;;113.65;46.13;;;11.00;99.90;;;;;;5070987;28;20052;-80
2021/11/19 09:33:37;;;;;;;103.67;44.00;;;11.00;99.90;;;;;;5032562;28;20035;-79
2021/11/19 09:36:05;;;;;;;103.60;42.50;;;11.00;99.90;;;;;;5051352;28;20278;-79
2021/11/19 09:38:30;;;;;;;104.97;45.30;;;11.10;99.90;;;;;;5029906;28;20037;-79
2021/11/19 09:41:02;;;;;;;101.25;44.15;;;11.10;99.90;;;;;;5051818;28;20055;-80
2021/11/19 09:43:43;;;;;;;113.45;43.08;;;11.10;99.90;;;;;;5070337;28;20032;-79
2021/11/19 09:46:14;;;;;;;106.65;44.25;;;11.10;99.90;;;;;;5073476;28;20025;-79
2021/11/19 09:49:02;;;;;;;105.00;44.08;;;11.10;99.90;;;;;;5056287;28;20111;-79
2021/11/19 09:51:40;;;;;;;93.13;41.30;;;11.10;99.90;;;;;;5073126;28;20016;-79
2021/11/19 09:54:31;;;;;;;102.47;43.42;;;11.10;99.90;;;;;;5072398;28;20048;-80
2021/11/19 09:57:22;;;;;;;104.85;42.67;;;11.20;99.90;;;;;;5048268;28;20054;-81
2021/11/19 10:00:13;;;;;;;106.57;43.85;;;11.20;99.90;;;;;;5070312;28;20033;-81
2021/11/19 10:03:02;;;;;;;108.28;43.25;;;11.20;99.90;;;;;;4996569;28;20041;-81
2021/11/19 10:05:40;;;;;;;93.85;41.05;;;11.20;99.90;;;;;;5071004;28;20034;-81
2021/11/19 10:08:10;;;;;;;95.03;41.00;;;11.20;99.90;;;;;;5069667;28;20016;-81
2021/11/19 10:10:55;;;;;;;101.75;43.40;;;11.20;99.90;;;;;;5072712;28;20105;-81
2021/11/19 10:14:04;;;;;;;101.45;42.25;;;11.20;99.90;;;;;;5051767;28;20032;-82
2021/11/19 10:16:50;;;;;;;101.43;43.55;;;11.20;99.90;;;;;;5052503;28;20032;-81
2021/11/19 10:19:40;;;;;;;89.80;40.38;;;11.30;99.90;;;;;;5070182;28;20115;-81
2021/11/19 10:22:23;;;;;;;92.90;40.60;;;11.30;99.90;;;;;;5054700;28;20016;-81
2021/11/19 10:25:04;;;;;;;93.47;41.80;;;11.30;99.90;;;;;;5055143;28;20121;-81
2021/11/19 10:27:44;;;;;;;100.70;43.72;;;11.30;99.90;;;;;;5069309;28;20020;-80
2021/11/19 10:30:32;;;;;;;106.55;44.55;;;11.30;99.90;;;;;;5072510;28;20678;-80
2021/11/19 10:33:14;;;;;;;92.00;42.30;;;11.30;99.90;;;;;;5072173;28;20036;-81
2021/11/19 10:36:01;;;;;;;105.20;44.10;;;11.40;99.90;;;;;;5043061;28;20492;-80
2021/11/19 10:38:32;;;;;;;94.70;41.42;;;11.40;99.90;;;;;;5071286;28;20493;-80
2021/11/19 10:41:21;;;;;;;99.75;44.10;;;11.40;99.90;;;;;;5052731;28;20085;-80
2021/11/19 10:44:25;;;;;;;90.15;42.00;;;11.40;99.90;;;;;;5072557;28;20036;-78
2021/11/19 10:47:04;;;;;;;88.97;41.78;;;11.40;99.90;;;;;;5072946;28;20381;-80
2021/11/19 10:50:07;;;;;;;100.68;44.03;;;11.40;99.90;;;;;;5056024;28;20021;-80
2021/11/19 10:52:48;;;;;;;93.97;42.92;;;11.50;99.90;;;;;;5072585;28;20046;-80
2021/11/19 10:55:26;;;;;;;95.43;44.20;;;11.50;99.90;;;;;;5054300;28;20481;-80
2021/11/19 10:58:21;;;;;;;103.63;45.47;;;11.50;99.90;;;;;;5069189;28;20024;-80
2021/11/19 11:01:02;;;;;;;89.03;41.67;;;11.60;99.90;;;;;;5064795;28;20493;-76
2021/11/19 11:03:33;;;;;;;96.57;41.42;;;11.60;99.90;;;;;;5062287;28;20033;-76
2021/11/19 11:06:06;;;;;;;94.07;41.88;;;11.60;99.90;;;;;;5038137;28;21646;-77
2021/11/19 11:08:36;;;;;;;88.93;43.92;;;11.70;99.90;;;;;;5052638;28;20020;-77
2021/11/19 11:11:09;;;;;;;88.05;43.90;;;11.70;99.90;;;;;;5051044;28;20169;-77
2021/11/19 11:14:02;;;;;;;91.60;45.55;;;11.80;99.90;;;;;;5053956;28;20028;-77
2021/11/19 11:16:38;;;;;;;91.57;43.22;;;11.90;99.90;;;;;;5048792;28;20554;-77
2021/11/19 11:19:10;;;;;;;86.70;42.05;;;11.90;99.90;;;;;;5049741;28;20059;-77
2021/11/19 11:21:38;;;;;;;81.45;41.33;;;11.90;99.90;;;;;;5054711;28;20488;-77
2021/11/19 11:24:09;;;;;;;82.18;40.88;;;12.00;99.90;;;;;;5054572;28;20032;-78
2021/11/19 11:27:12;;;;;;;80.25;41.75;;;12.00;99.90;;;;;;5053791;28;20028;-77
2021/11/19 11:29:58;;;;;;;78.10;41.20;;;12.00;99.90;;;;;;5072915;28;20031;-77
2021/11/19 11:32:28;;;;;;;78.40;40.45;;;12.10;99.90;;;;;;5073336;28;20070;-77
2021/11/19 11:35:03;;;;;;;81.40;42.17;;;12.10;99.90;;;;;;5066856;28;20383;-77
2021/11/19 11:37:44;;;;;;;81.28;42.45;;;12.20;99.90;;;;;;5052855;28;20060;-77
2021/11/19 11:40:41;;;;;;;77.57;41.60;;;12.20;99.90;;;;;;5051013;28;20404;-77
2021/11/19 11:43:20;;;;;;;77.43;41.95;;;12.20;99.90;;;;;;5045074;28;20029;-77
2021/11/19 11:45:53;;;;;;;74.07;40.58;;;12.30;99.90;;;;;;5063590;28;20025;-80
2021/11/19 11:48:26;;;;;;;82.13;42.13;;;12.30;99.90;;;;;;5053131;28;20404;-80
2021/11/19 11:50:57;;;;;;;70.50;41.88;;;12.40;99.90;;;;;;5070056;28;20369;-80
2021/11/19 11:53:41;;;;;;;70.53;40.75;;;12.50;99.90;;;;;;5056600;28;20075;-80
2021/11/19 11:56:12;;;;;;;70.40;40.90;;;12.60;99.90;;;;;;5072113;28;20554;-80
2021/11/19 11:59:08;;;;;;;74.00;40.72;;;12.60;99.70;;;;;;5070995;28;20063;-80
2021/11/19 12:01:36;;;;;;;73.55;39.28;;;12.70;99.60;;;;;;5068409;28;20037;-81
2021/11/19 12:04:16;;;;;;;71.00;39.10;;;12.60;99.50;;;;;;5072087;28;20029;-81
2021/11/19 12:06:51;;;;;;;70.18;38.78;;;12.60;99.50;;;;;;5066244;28;20033;-82
2021/11/19 12:09:33;;;;;;;65.13;39.40;;;12.50;99.50;;;;;;5066188;28;20090;-83
2021/11/19 12:12:21;;;;;;;63.65;36.83;;;12.50;99.50;;;;;;5071463;28;20047;-81
2021/11/19 12:15:14;;;;;;;65.97;38.65;;;12.40;99.50;;;;;;5070582;28;20472;-79
2021/11/19 12:17:42;;;;;;;69.65;38.60;;;12.40;99.60;;;;;;5066886;28;20033;-80
2021/11/19 12:20:11;;;;;;;74.95;38.83;;;12.40;99.60;;;;;;5069942;28;20115;-80
2021/11/19 12:23:05;;;;;;;66.40;38.38;;;12.40;99.60;;;;;;5068367;28;20037;-76
2021/11/19 12:25:59;;;;;;;61.63;36.08;;;12.30;99.60;;;;;;5064780;28;20456;-77
2021/11/19 12:28:33;;;;;;;65.72;39.10;;;12.30;99.60;;;;;;5057291;28;20037;-77
2021/11/19 12:31:07;;;;;;;62.17;37.00;;;12.30;99.70;;;;;;5061732;28;20033;-77
2021/11/19 12:33:43;;;;;;;63.92;37.30;;;12.30;99.70;;;;;;5062363;28;20035;-77
2021/11/19 12:36:16;;;;;;;63.03;39.25;;;12.30;99.70;;;;;;5065955;28;20020;-77
2021/11/19 12:38:49;;;;;;;70.68;37.58;;;12.30;99.70;;;;;;5063741;28;20024;-78
2021/11/19 12:41:19;;;;;;;65.40;38.10;;;12.30;99.70;;;;;;5059666;28;20032;-77
2021/11/19 12:43:50;;;;;;;73.35;38.65;;;12.30;99.70;;;;;;5069460;28;20068;-77
2021/11/19 12:46:19;;;;;;;60.70;36.38;;;12.20;99.80;;;;;;5070901;28;20579;-80
2021/11/19 12:48:53;;;;;;;60.08;36.95;;;12.20;99.80;;;;;;5070356;28;20380;-80